createdAt,value
2023-05-09T00:00:32.642Z,100815.06
2023-05-09T00:03:02.712Z,100815.44
2023-05-09T00:05:32.427Z,100814.25
2023-05-09T00:08:02.392Z,100814.25
2023-05-09T00:10:34.941Z,100813.47
2023-05-09T00:13:05.316Z,100820.28
2023-05-09T00:15:35.069Z,100816.63
2023-05-09T00:18:05.181Z,100820.28
2023-05-09T00:20:36.584Z,100812.63
2023-05-09T00:23:07.386Z,100818.28
2023-05-09T00:25:39.399Z,100816.63
2023-05-09T00:28:09.322Z,100823.47
2023-05-09T00:30:39.805Z,100822.28
2023-05-09T00:33:09.418Z,100818.66
2023-05-09T00:35:39.422Z,100816.19
2023-05-09T00:38:10.008Z,100812.19
2023-05-09T00:40:41.914Z,100817.81
2023-05-09T00:43:12.305Z,100807.72
2023-05-09T00:45:42.781Z,100808.56
2023-05-09T00:48:13.378Z,100813.38
2023-05-09T00:50:44.269Z,100808.97
2023-05-09T00:53:15.694Z,100816.19
2023-05-09T00:55:48.304Z,100804.50
2023-05-09T00:58:19.759Z,100808.97
2023-05-09T01:00:53.153Z,100804.84
2023-05-09T01:03:23.306Z,100811.34
2023-05-09T01:06:05.059Z,100804.06
2023-05-09T01:08:49.504Z,100809.69
2023-05-09T01:11:34.513Z,100810.88
2023-05-09T01:14:18.548Z,100815.69
2023-05-09T01:16:58.508Z,100817.72
2023-05-09T01:19:54.565Z,100815.66
2023-05-09T01:22:30.156Z,100819.66
2023-05-09T01:25:51.833Z,100812.75
2023-05-09T01:29:04.023Z,100815.13
2023-05-09T01:31:43.065Z,100821.16
2023-05-09T01:34:17.349Z,100815.50
2023-05-09T01:36:52.379Z,100818.31
2023-05-09T01:39:33.797Z,100815.50
2023-05-09T01:42:09.159Z,100813.06
2023-05-09T01:44:43.023Z,100824.34
2023-05-09T01:47:16.925Z,100819.91
2023-05-09T01:49:50.299Z,100821.09
2023-05-09T01:52:24.002Z,100822.72
2023-05-09T01:54:54.498Z,100825.09
2023-05-09T01:57:26.881Z,100824.31
2023-05-09T01:59:58.832Z,100828.66
2023-05-09T02:02:32.202Z,100829.06
2023-05-09T02:05:04.791Z,100829.84
2023-05-09T02:07:37.516Z,100833.06
2023-05-09T02:10:11.839Z,100833.44
2023-05-09T02:12:43.403Z,100837.47
2023-05-09T02:15:14.503Z,100837.00
2023-05-09T02:17:47.096Z,100841.47
2023-05-09T02:20:17.486Z,100837.41
2023-05-09T02:22:48.853Z,100837.41
2023-05-09T02:25:19.952Z,100839.78
2023-05-09T02:27:50.645Z,100845.78
2023-05-09T02:30:26.523Z,100858.25
2023-05-09T02:33:04.322Z,100846.97
2023-05-09T02:35:35.245Z,100851.00
2023-05-09T02:38:05.454Z,100852.56
2023-05-09T02:40:37.171Z,100848.53
2023-05-09T02:43:07.565Z,100853.75
2023-05-09T02:45:37.943Z,100854.94
2023-05-09T02:48:11.793Z,100862.56
2023-05-09T02:50:43.385Z,100864.13
2023-05-09T02:53:14.271Z,100870.16
2023-05-09T02:55:44.377Z,100866.06
2023-05-09T02:58:15.151Z,100870.44
2023-05-09T03:00:46.025Z,100874.44
2023-05-09T03:03:19.538Z,100874.84
2023-05-09T03:05:49.913Z,100881.66
2023-05-09T03:08:20.266Z,100887.69
2023-05-09T03:10:51.548Z,100878.78
2023-05-09T03:13:22.203Z,100878.31
2023-05-09T03:15:53.089Z,100876.69
2023-05-09T03:18:25.531Z,100881.53
2023-05-09T03:20:55.978Z,100880.25
2023-05-09T03:23:26.086Z,100881.47
2023-05-09T03:25:56.037Z,100889.47
2023-05-09T03:28:26.330Z,100892.63
2023-05-09T03:30:56.571Z,100888.22
2023-05-09T03:33:28.464Z,100893.03
2023-05-09T03:35:58.581Z,100895.03
2023-05-09T03:38:28.895Z,100888.56
2023-05-09T03:40:59.536Z,100884.94
2023-05-09T03:43:29.646Z,100891.38
2023-05-09T03:46:00.128Z,100886.13
2023-05-09T03:48:32.099Z,100888.09
2023-05-09T03:51:03.572Z,100890.09
2023-05-09T03:53:33.927Z,100897.75
2023-05-09T03:56:04.544Z,100907.81
2023-05-09T03:58:35.026Z,100890.91
2023-05-09T04:01:05.525Z,100897.41
2023-05-09T04:03:38.610Z,100901.38
2023-05-09T04:06:09.857Z,100902.19
2023-05-09T04:08:40.048Z,100901.38
2023-05-09T04:11:10.442Z,100896.94
2023-05-09T04:13:40.256Z,100902.94
2023-05-09T04:16:10.672Z,100895.66
2023-05-09T04:18:43.230Z,100896.03
2023-05-09T04:21:13.487Z,100902.41
2023-05-09T04:23:44.074Z,100898.78
2023-05-09T04:26:16.129Z,100892.72
2023-05-09T04:28:46.671Z,100890.69
2023-05-09T04:31:16.590Z,100899.94
2023-05-09T04:33:48.489Z,100900.78
2023-05-09T04:36:18.752Z,100897.59
2023-05-09T04:38:49.353Z,100896.78
2023-05-09T04:41:19.822Z,100895.59
2023-05-09T04:43:49.893Z,100894.41
2023-05-09T04:46:20.356Z,100892.84
2023-05-09T04:48:52.683Z,100892.13
2023-05-09T04:51:22.575Z,100887.78
2023-05-09T04:53:53.428Z,100889.81
2023-05-09T04:56:24.145Z,100888.69
2023-05-09T04:58:54.039Z,100888.34
2023-05-09T05:01:23.865Z,100890.44
2023-05-09T05:03:56.103Z,100890.84
2023-05-09T05:06:26.531Z,100887.69
2023-05-09T05:08:56.653Z,100888.94
2023-05-09T05:11:26.938Z,100888.56
2023-05-09T05:13:57.136Z,100893.44
2023-05-09T05:16:27.261Z,100897.16
2023-05-09T05:18:59.679Z,100898.41
2023-05-09T05:21:30.027Z,100898.47
2023-05-09T05:23:59.688Z,100895.28
2023-05-09T05:26:30.426Z,100890.91
2023-05-09T05:29:01.361Z,100883.72
2023-05-09T05:31:31.701Z,100890.59
2023-05-09T05:34:04.359Z,100881.75
2023-05-09T05:36:34.547Z,100882.19
2023-05-09T05:39:04.970Z,100879.44
2023-05-09T05:41:35.272Z,100879.50
2023-05-09T05:44:05.242Z,100883.22
2023-05-09T05:46:35.038Z,100886.91
2023-05-09T05:49:06.526Z,100888.66
2023-05-09T05:51:36.377Z,100881.81
2023-05-09T05:54:07.000Z,100888.31
2023-05-09T05:56:37.045Z,100879.91
2023-05-09T05:59:07.421Z,100885.63
2023-05-09T06:01:37.351Z,100882.88
2023-05-09T06:04:09.835Z,100887.00
2023-05-09T06:06:40.529Z,100882.25
2023-05-09T06:09:10.784Z,100883.53
2023-05-09T06:11:41.074Z,100872.34
2023-05-09T06:14:11.405Z,100870.84
2023-05-09T06:16:41.852Z,100869.31
2023-05-09T06:19:14.508Z,100875.06
2023-05-09T06:21:45.147Z,100879.59
2023-05-09T06:24:27.591Z,100878.47
2023-05-09T06:27:05.609Z,100885.78
2023-05-09T06:29:36.139Z,100880.22
2023-05-09T06:32:06.936Z,100885.94
2023-05-09T06:34:48.585Z,100883.94
2023-05-09T06:37:18.593Z,100893.69
2023-05-09T06:39:48.926Z,100890.09
2023-05-09T06:42:19.425Z,100889.72
2023-05-09T06:44:49.850Z,100890.56
2023-05-09T06:47:20.219Z,100893.03
2023-05-09T06:49:52.630Z,100893.44
2023-05-09T06:52:23.021Z,100898.72
2023-05-09T06:54:54.187Z,100902.78
2023-05-09T06:57:24.302Z,100908.09
2023-05-09T06:59:54.288Z,100903.31
2023-05-09T07:02:24.953Z,100903.00
2023-05-09T07:04:57.163Z,100906.34
2023-05-09T07:07:27.925Z,100908.81
2023-05-09T07:10:09.963Z,100906.47
2023-05-09T07:12:41.956Z,100900.88
2023-05-09T07:15:14.666Z,100896.91
2023-05-09T07:17:48.124Z,100893.34
2023-05-09T07:20:20.795Z,100895.44
2023-05-09T07:22:51.126Z,100890.66
2023-05-09T07:25:21.749Z,100889.09
2023-05-09T07:27:51.706Z,100894.41
2023-05-09T07:30:22.136Z,100895.72
2023-05-09T07:32:52.766Z,100894.56
2023-05-09T07:35:25.582Z,100887.72
2023-05-09T07:37:55.263Z,100886.56
2023-05-09T07:40:25.773Z,100878.94
2023-05-09T07:42:57.212Z,100869.66
2023-05-09T07:45:27.614Z,100873.34
2023-05-09T07:47:58.284Z,100865.69
2023-05-09T07:50:30.791Z,100866.53
2023-05-09T07:53:00.992Z,100860.91
2023-05-09T07:55:31.402Z,100871.44
2023-05-09T07:58:01.155Z,100873.09
2023-05-09T08:00:31.640Z,100862.63
2023-05-09T08:03:02.510Z,100868.31
2023-05-09T08:05:35.228Z,100863.06
2023-05-09T08:08:05.885Z,100867.16
2023-05-09T08:10:35.832Z,100870.03
2023-05-09T08:13:05.638Z,100857.94
2023-05-09T08:15:36.151Z,100857.13
2023-05-09T08:18:06.859Z,100850.69
2023-05-09T08:20:39.337Z,100853.97
2023-05-09T08:23:09.897Z,100847.88
2023-05-09T08:25:40.413Z,100850.75
2023-05-09T08:28:10.477Z,100850.75
2023-05-09T08:30:41.090Z,100856.84
2023-05-09T08:33:11.627Z,100851.19
2023-05-09T08:35:43.465Z,100854.09
2023-05-09T08:38:13.669Z,100835.47
2023-05-09T08:40:44.631Z,100839.53
2023-05-09T08:43:15.268Z,100844.41
2023-05-09T08:45:50.802Z,100835.94
2023-05-09T08:48:22.377Z,100840.00
2023-05-09T08:51:04.435Z,100847.28
2023-05-09T08:53:35.012Z,100838.41
2023-05-09T08:56:06.842Z,100833.13
2023-05-09T08:58:38.337Z,100838.06
2023-05-09T09:01:09.502Z,100833.59
2023-05-09T09:03:40.638Z,100846.19
2023-05-09T09:06:13.969Z,100838.09
2023-05-09T09:08:45.027Z,100838.50
2023-05-09T09:11:18.993Z,100841.75
2023-05-09T09:13:52.030Z,100832.47
2023-05-09T09:16:25.594Z,100823.56
2023-05-09T09:18:59.069Z,100823.97
2023-05-09T09:21:48.873Z,100819.53
2023-05-09T09:24:25.187Z,100819.53
2023-05-09T09:26:55.806Z,100820.31
2023-05-09T09:29:29.016Z,100817.09
2023-05-09T09:31:59.227Z,100810.22
2023-05-09T09:34:29.747Z,100812.66
2023-05-09T09:37:01.839Z,100809.81
2023-05-09T09:39:32.188Z,100813.47
2023-05-09T09:42:14.211Z,100808.59
2023-05-09T09:44:44.856Z,100804.97
2023-05-09T09:47:15.030Z,100804.97
2023-05-09T09:49:49.075Z,100802.94
2023-05-09T09:52:29.910Z,100800.09
2023-05-09T09:55:00.121Z,100787.97
2023-05-09T09:57:37.756Z,100792.81
2023-05-09T10:00:09.698Z,100798.47
2023-05-09T10:02:51.417Z,100785.94
2023-05-09T10:05:24.858Z,100781.47
2023-05-09T10:07:59.337Z,100786.75
2023-05-09T10:10:32.258Z,100791.19
2023-05-09T10:13:06.925Z,100792.00
2023-05-09T10:15:52.187Z,100787.13
2023-05-09T10:18:31.274Z,100793.66
2023-05-09T10:21:04.552Z,100793.22
2023-05-09T10:23:43.081Z,100789.97
2023-05-09T10:26:27.862Z,100781.47
2023-05-09T10:29:00.755Z,100791.59
2023-05-09T10:31:34.679Z,100788.78
2023-05-09T10:34:12.506Z,100786.75
2023-05-09T10:36:42.905Z,100793.66
2023-05-09T10:39:15.951Z,100788.78
2023-05-09T10:41:47.061Z,100793.25
2023-05-09T10:44:17.517Z,100798.91
2023-05-09T10:46:47.932Z,100789.59
2023-05-09T10:49:18.608Z,100781.91
2023-05-09T10:51:48.762Z,100772.59
2023-05-09T10:54:31.805Z,100774.22
2023-05-09T10:57:02.464Z,100777.44
2023-05-09T10:59:40.744Z,100783.94
2023-05-09T11:02:18.388Z,100785.13
2023-05-09T11:04:54.430Z,100783.09
2023-05-09T11:07:30.885Z,100777.44
2023-05-09T11:10:17.494Z,100773.78
2023-05-09T11:12:59.220Z,100774.22
2023-05-09T11:15:29.534Z,100773.38
2023-05-09T11:18:10.158Z,100778.63
2023-05-09T11:20:46.799Z,100771.75
2023-05-09T11:23:20.724Z,100766.50
2023-05-09T11:25:53.759Z,100762.03
2023-05-09T11:28:31.862Z,100759.59
2023-05-09T11:31:14.436Z,100759.97
2023-05-09T11:33:47.246Z,100762.03
2023-05-09T11:36:25.804Z,100762.44
2023-05-09T11:39:08.934Z,100755.13
2023-05-09T11:41:49.449Z,100755.53
2023-05-09T11:44:21.208Z,100746.22
2023-05-09T11:46:52.817Z,100751.88
2023-05-09T11:49:23.238Z,100755.94
2023-05-09T11:51:53.707Z,100742.97
2023-05-09T11:54:26.940Z,100747.41
2023-05-09T11:57:02.168Z,100738.09
2023-05-09T11:59:32.751Z,100747.00
2023-05-09T12:02:08.010Z,100732.81
2023-05-09T12:04:39.808Z,100732.81
2023-05-09T12:07:10.346Z,100734.88
2023-05-09T12:09:40.433Z,100728.00
2023-05-09T12:12:18.676Z,100727.16
2023-05-09T12:14:51.239Z,100726.38
2023-05-09T12:17:22.001Z,100721.91
2023-05-09T12:19:52.112Z,100725.13
2023-05-09T12:22:22.334Z,100733.63
2023-05-09T12:24:52.907Z,100723.53
2023-05-09T12:27:26.940Z,100718.66
2023-05-09T12:29:58.138Z,100708.50
2023-05-09T12:32:32.162Z,100715.00
2023-05-09T12:35:03.742Z,100712.19
2023-05-09T12:37:34.647Z,100711.34
2023-05-09T12:40:06.600Z,100712.19
2023-05-09T12:42:39.736Z,100714.19
2023-05-09T12:45:12.863Z,100708.50
2023-05-09T12:47:43.763Z,100714.59
2023-05-09T12:50:14.904Z,100714.59
2023-05-09T12:53:02.110Z,100707.31
2023-05-09T12:55:33.316Z,100698.38
2023-05-09T12:58:06.437Z,100702.44
2023-05-09T13:00:46.678Z,100697.16
2023-05-09T13:03:30.131Z,100702.00
2023-05-09T13:06:02.323Z,100705.66
2023-05-09T13:08:34.970Z,100700.78
2023-05-09T13:11:15.638Z,100700.38
2023-05-09T13:13:48.575Z,100691.47
2023-05-09T13:16:18.800Z,100694.28
2023-05-09T13:18:52.001Z,100693.91
2023-05-09T13:21:22.206Z,100695.09
2023-05-09T13:23:52.710Z,100701.13
2023-05-09T13:26:22.967Z,100697.50
2023-05-09T13:28:55.287Z,100694.66
2023-05-09T13:31:26.827Z,100698.72
2023-05-09T13:33:56.810Z,100694.25
2023-05-09T13:36:26.532Z,100695.88
2023-05-09T13:38:56.938Z,100699.91
2023-05-09T13:41:27.664Z,100695.47
2023-05-09T13:44:00.212Z,100697.06
2023-05-09T13:46:30.775Z,100699.50
2023-05-09T13:49:02.267Z,100691.81
2023-05-09T13:51:33.015Z,100704.34
2023-05-09T13:54:12.936Z,100699.88
2023-05-09T13:56:43.664Z,100696.63
2023-05-09T13:59:15.470Z,100703.50
2023-05-09T14:01:46.048Z,100693.81
2023-05-09T14:04:16.521Z,100686.91
2023-05-09T14:06:48.683Z,100693.78
2023-05-09T14:09:19.934Z,100693.38
2023-05-09T14:11:51.223Z,100690.13
2023-05-09T14:14:24.600Z,100692.16
2023-05-09T14:16:55.264Z,100685.25
2023-05-09T14:19:25.491Z,100690.53
2023-05-09T14:21:55.873Z,100694.94
2023-05-09T14:24:26.630Z,100690.47
2023-05-09T14:26:56.883Z,100700.59
2023-05-09T14:29:29.225Z,100702.63
2023-05-09T14:31:59.790Z,100692.06
2023-05-09T14:34:30.305Z,100693.28
2023-05-09T14:37:00.635Z,100678.69
2023-05-09T14:39:30.861Z,100684.78
2023-05-09T14:42:01.011Z,100688.81
2023-05-09T14:44:32.883Z,100695.31
2023-05-09T14:47:03.216Z,100685.56
2023-05-09T14:49:33.707Z,100689.59
2023-05-09T14:52:04.145Z,100687.16
2023-05-09T14:54:34.018Z,100685.53
2023-05-09T14:57:05.750Z,100689.22
2023-05-09T14:59:38.345Z,100685.94
2023-05-09T15:02:09.286Z,100692.81
2023-05-09T15:04:39.006Z,100693.19
2023-05-09T15:07:09.261Z,100694.41
2023-05-09T15:09:40.036Z,100687.13
2023-05-09T15:12:11.315Z,100685.50
2023-05-09T15:14:43.712Z,100683.88
2023-05-09T15:17:13.658Z,100695.59
2023-05-09T15:19:43.904Z,100679.81
2023-05-09T15:22:14.380Z,100680.19
2023-05-09T15:24:44.647Z,100683.44
2023-05-09T15:27:14.837Z,100681.78
2023-05-09T15:29:47.119Z,100675.34
2023-05-09T15:32:17.234Z,100680.56
2023-05-09T15:34:47.784Z,100686.66
2023-05-09T15:37:18.083Z,100688.66
2023-05-09T15:39:48.282Z,100687.03
2023-05-09T15:42:19.594Z,100693.88
2023-05-09T15:44:52.029Z,100698.75
2023-05-09T15:47:22.072Z,100704.00
2023-05-09T15:49:52.491Z,100702.38
2023-05-09T15:52:22.811Z,100697.09
2023-05-09T15:54:52.833Z,100694.66
2023-05-09T15:57:23.196Z,100702.75
2023-05-09T15:59:56.870Z,100695.06
2023-05-09T16:02:27.782Z,100700.28
2023-05-09T16:04:58.181Z,100703.94
2023-05-09T16:07:28.468Z,100704.72
2023-05-09T16:09:59.369Z,100703.09
2023-05-09T16:12:30.002Z,100705.50
2023-05-09T16:15:02.789Z,100696.22
2023-05-09T16:17:34.067Z,100697.00
2023-05-09T16:20:04.268Z,100701.03
2023-05-09T16:22:34.227Z,100689.31
2023-05-09T16:25:04.726Z,100701.84
2023-05-09T16:27:34.482Z,100707.88
2023-05-09T16:30:08.168Z,100711.91
2023-05-09T16:32:38.758Z,100720.81
2023-05-09T16:35:11.144Z,100726.88
2023-05-09T16:37:41.478Z,100729.28
2023-05-09T16:40:13.576Z,100735.34
2023-05-09T16:42:44.093Z,100734.91
2023-05-09T16:45:16.892Z,100733.28
2023-05-09T16:47:47.412Z,100740.13
2023-05-09T16:50:17.981Z,100743.75
2023-05-09T16:52:50.787Z,100741.28
2023-05-09T16:55:21.267Z,100742.47
2023-05-09T16:57:51.925Z,100741.69
2023-05-09T17:00:27.298Z,100743.69
2023-05-09T17:02:57.895Z,100752.94
2023-05-09T17:05:29.810Z,100755.78
2023-05-09T17:08:00.382Z,100757.00
2023-05-09T17:10:30.890Z,100744.44
2023-05-09T17:13:00.868Z,100749.28
2023-05-09T17:15:34.745Z,100742.41
2023-05-09T17:18:05.431Z,100739.94
2023-05-09T17:20:35.968Z,100742.34
2023-05-09T17:23:06.583Z,100746.41
2023-05-09T17:25:36.534Z,100744.78
2023-05-09T17:28:06.745Z,100751.63
2023-05-09T17:30:39.997Z,100750.00
2023-05-09T17:33:10.545Z,100759.25
2023-05-09T17:35:40.587Z,100757.25
2023-05-09T17:38:10.515Z,100754.81
2023-05-09T17:40:45.793Z,100761.66
2023-05-09T17:43:16.154Z,100755.59
2023-05-09T17:45:48.810Z,100758.81
2023-05-09T17:48:18.967Z,100755.19
2023-05-09T17:50:49.768Z,100763.66
2023-05-09T17:53:20.352Z,100759.59
2023-05-09T17:55:50.296Z,100758.78
2023-05-09T17:58:21.272Z,100765.63
2023-05-09T18:00:58.968Z,100778.13
2023-05-09T18:03:29.889Z,100775.69
2023-05-09T18:06:00.701Z,100779.72
2023-05-09T18:08:31.547Z,100785.78
2023-05-09T18:11:02.975Z,100778.50
2023-05-09T18:13:33.856Z,100786.16
2023-05-09T18:16:07.035Z,100789.38
2023-05-09T18:18:37.531Z,100795.44
2023-05-09T18:21:08.513Z,100793.81
2023-05-09T18:23:38.616Z,100795.00
2023-05-09T18:26:08.656Z,100801.84
2023-05-09T18:28:41.363Z,100786.09
2023-05-09T18:31:14.443Z,100792.94
2023-05-09T18:33:44.468Z,100802.63
2023-05-09T18:36:15.885Z,100810.28
2023-05-09T18:38:48.146Z,100812.69
2023-05-09T18:41:18.667Z,100818.75
2023-05-09T18:43:49.028Z,100821.56
2023-05-09T18:46:22.203Z,100817.47
2023-05-09T18:48:54.249Z,100821.53
2023-05-09T18:51:24.592Z,100810.59
2023-05-09T18:53:54.676Z,100807.75
2023-05-09T18:56:25.894Z,100806.13
2023-05-09T18:58:56.131Z,100815.78
2023-05-09T19:01:28.510Z,100814.16
2023-05-09T19:03:58.722Z,100821.03
2023-05-09T19:06:29.919Z,100818.56
2023-05-09T19:09:00.023Z,100816.13
2023-05-09T19:11:30.105Z,100809.66
2023-05-09T19:13:59.989Z,100810.03
2023-05-09T19:16:32.246Z,100819.72
2023-05-09T19:19:03.307Z,100817.28
2023-05-09T19:21:34.856Z,100818.50
2023-05-09T19:24:06.704Z,100818.44
2023-05-09T19:26:36.258Z,100816.81
2023-05-09T19:29:08.498Z,100808.72
2023-05-09T19:31:40.764Z,100812.75
2023-05-09T19:34:11.078Z,100818.78
2023-05-09T19:36:41.442Z,100815.53
2023-05-09T19:39:11.905Z,100812.72
2023-05-09T19:41:42.416Z,100816.75
2023-05-09T19:44:12.829Z,100819.94
2023-05-09T19:46:45.169Z,100814.28
2023-05-09T19:49:17.941Z,100817.50
2023-05-09T19:51:48.346Z,100825.13
2023-05-09T19:54:20.034Z,100825.13
2023-05-09T19:56:49.856Z,100824.72
2023-05-09T19:59:19.508Z,100828.34
2023-05-09T20:01:51.974Z,100834.00
2023-05-09T20:04:22.821Z,100821.06
2023-05-09T20:06:53.546Z,100824.72
2023-05-09T20:09:23.776Z,100813.78
2023-05-09T20:11:54.028Z,100816.63
2023-05-09T20:14:24.218Z,100823.47
2023-05-09T20:16:56.358Z,100814.19
2023-05-09T20:19:26.689Z,100820.25
2023-05-09T20:21:56.810Z,100823.84
2023-05-09T20:24:27.129Z,100817.41
2023-05-09T20:26:57.176Z,100821.44
2023-05-09T20:29:28.194Z,100820.59
2023-05-09T20:32:00.321Z,100816.16
2023-05-09T20:34:30.641Z,100815.34
2023-05-09T20:37:00.531Z,100811.69
2023-05-09T20:39:30.905Z,100816.53
2023-05-09T20:42:02.691Z,100823.38
2023-05-09T20:44:33.137Z,100819.75
2023-05-09T20:47:05.082Z,100815.31
2023-05-09T20:49:34.861Z,100809.66
2023-05-09T20:52:04.987Z,100806.00
2023-05-09T20:54:35.151Z,100804.38
2023-05-09T20:57:05.819Z,100802.75
2023-05-09T20:59:36.251Z,100816.06
2023-05-09T21:02:08.713Z,100814.44
2023-05-09T21:04:38.819Z,100808.34
2023-05-09T21:07:10.315Z,100813.19
2023-05-09T21:09:40.206Z,100811.94
2023-05-09T21:12:11.226Z,100819.59
2023-05-09T21:14:41.401Z,100820.00
2023-05-09T21:17:13.896Z,100821.97
2023-05-09T21:19:44.120Z,100820.75
2023-05-09T21:22:13.748Z,100810.63
2023-05-09T21:24:43.755Z,100808.22
2023-05-09T21:27:13.635Z,100811.41
2023-05-09T21:29:43.642Z,100808.59
2023-05-09T21:32:15.223Z,100801.31
2023-05-09T21:34:45.787Z,100805.78
2023-05-09T21:37:15.707Z,100805.78
2023-05-09T21:39:45.909Z,100808.59
2023-05-09T21:42:15.433Z,100793.28
2023-05-09T21:44:45.668Z,100795.28
2023-05-09T21:47:18.161Z,100797.72
2023-05-09T21:49:48.636Z,100796.09
2023-05-09T21:52:18.764Z,100790.47
2023-05-09T21:54:48.827Z,100787.63
2023-05-09T21:57:19.067Z,100793.28
2023-05-09T21:59:49.352Z,100788.00
2023-05-09T22:02:21.366Z,100790.47
2023-05-09T22:04:51.600Z,100790.81
2023-05-09T22:07:21.813Z,100786.00
2023-05-09T22:09:51.977Z,100788.00
2023-05-09T22:12:23.416Z,100788.84
2023-05-09T22:14:56.686Z,100786.00
2023-05-09T22:17:29.987Z,100779.16
2023-05-09T22:19:59.673Z,100782.78
2023-05-09T22:22:30.063Z,100776.34
2023-05-09T22:25:00.306Z,100758.56
2023-05-09T22:27:30.639Z,100766.63
2023-05-09T22:30:00.595Z,100763.03
2023-05-09T22:32:32.653Z,100751.31
2023-05-09T22:35:02.908Z,100752.53
2023-05-09T22:37:33.173Z,100750.53
2023-05-09T22:40:03.597Z,100748.91
2023-05-09T22:42:35.151Z,100738.78
2023-05-09T22:45:06.112Z,100737.59
2023-05-09T22:47:38.669Z,100730.75
2023-05-09T22:50:10.996Z,100726.31
2023-05-09T22:52:41.329Z,100723.47
2023-05-09T22:55:11.781Z,100727.50
2023-05-09T22:57:42.503Z,100721.47
2023-05-09T23:00:14.704Z,100716.19
2023-05-09T23:02:47.072Z,100709.75
2023-05-09T23:05:17.322Z,100719.44
2023-05-09T23:07:48.041Z,100717.41
2023-05-09T23:10:19.121Z,100717.78
2023-05-09T23:12:49.033Z,100714.97
2023-05-09T23:15:19.433Z,100712.16
2023-05-09T23:17:51.616Z,100709.31
2023-05-09T23:20:21.699Z,100713.31
2023-05-09T23:22:51.646Z,100712.47
2023-05-09T23:25:22.118Z,100715.31
2023-05-09T23:27:52.222Z,100715.31
2023-05-09T23:30:22.666Z,100716.53
2023-05-09T23:32:54.960Z,100722.16
2023-05-09T23:35:26.612Z,100710.03
2023-05-09T23:37:56.798Z,100708.06
2023-05-09T23:40:27.288Z,100707.22
2023-05-09T23:42:57.262Z,100712.06
2023-05-09T23:45:27.958Z,100712.06
2023-05-09T23:48:00.192Z,100707.63
2023-05-09T23:50:30.682Z,100713.28
2023-05-09T23:53:00.992Z,100709.59
2023-05-09T23:55:31.001Z,100703.97
2023-05-09T23:58:02.866Z,100707.63
